Portada
METAR-TAF:

METAR-TAF

Aeroports :

Salvador, Bahia, Brasil

latitud: 12-54S, longitud: 038-20W, altitud: 6 m

Observació

L'informe es va fer fa 15 minuts, a les 02:00 UTC
Vent 2 kt amb direcció variable
Temperatura 23°C
Humitat 89%
Pressió 1017 hPa
Visibilitat 10 km o més
Escasses núvols a una alçada de 2300 ft

METAR: SBSV 160200Z VRB02KT 9999 FEW023 23/21 Q1017

Hora: 23:15 (02:15 UTC)

Pronòstic

L'informe es va fer fa 4 hores i 15 minuts, a les 22:00 UTC
Pronòstic vàlid del 16 a les 00 UTC al 16 a les 24 UTC
Vent 8 kt del Est/Nord-Est
Visibilitat 10 km o més
Escasses núvols a una alçada de 2000 ft
Evolucionant progressivament
l' 16 a les 08 UTC al 16 a les 10 UTC
Vent 6 kt del Nord/Nord-Oest
Evolucionant progressivament
l' 16 a les 13 UTC al 16 a les 15 UTC
Vent 10 kt del Est

TAF: SBSV 152200Z 1600/1624 06008KT 9999 FEW020 TN24/1607Z TX28/1616Z BECMG 1608/1610 33006KT BECMG 1613/1615 08010KT RMK PCQ

Observacions i pronòstics meteorològics de més de 4000 aeroports (METAR i TAF).

Les estacions disponibles són els punts grocs i vermells al mapa.

Posi el ratolí al punt desitjat per veure el nom de l'estació.

Feu clic per veure les observacions i els pronòstics meteorològics.

Per canviar el mapa: feu clic els botons verds amb una creu de color negre per apropar; al botó verd amb un guió per allunyar la imatge; o en les fletxes verdes per a mapes adjacents.


METAR-TAF: